Main page
Satellite images 10-day forecastsClimateMarine weather Cyclones Lightning AirportsFAQ Newsletter About
Weather : Europe Africa North America South America Asia Australia-Oceania Others
Languages Contact

London, England

London City Airport

latitude: 51-30N, longitude: 000-03E, elevation: 5 m


METAR: EGLC 272150Z AUTO 26014KT 9999 NCD 09/01 Q1012
TAF: EGLC 271700Z 2718/2721 VRB03KT 9999 SCT045 BECMG 2718/2721 27010KT PROB30 TEMPO 2718/2721 7000 SHRA

Time: 23:11 (22:11 UTC)

Current weather observation

The report was made 21 minutes ago, at 21:50 UTC
Wind 14 kt from the West
Temperature 9°C
Humidity 57%
Pressure 1012 hPa
Visibility 10 km or more

Change units

Forecast

The report was made 5 hours and 11 minutes ago, at 17:00 UTC
Forecast valid from 27 at 18 UTC to 27 at 21 UTC
Wind 3 kt from variable directions
Visibility 10 km or more
Scattered clouds at a height of 4500 ft
Becoming
from 27 at 18 UTC to 27 at 21 UTC
Wind 10 kt from the West
Probability 30% :
Temporary
from 27 at 18 UTC to 27 at 21 UTC
Visibility: 7000 m
rain showers
The information on this site is subject to a disclaimer
Weather : Europe Africa North America South America Asia Australia-Oceania Others
Satellite images 10-day forecastsClimateMarine weather Cyclones Lightning AirportsFAQ Languages Contact Newsletter About